createdAt,value
2018-05-21T00:01:46.484Z,87.50
2018-05-21T00:04:14.070Z,87.70
2018-05-21T00:06:41.709Z,87.40
2018-05-21T00:09:09.320Z,88.40
2018-05-21T00:11:36.937Z,87.90
2018-05-21T00:14:04.551Z,88.00
2018-05-21T00:16:32.150Z,87.90
2018-05-21T00:18:59.757Z,87.50
2018-05-21T00:21:27.417Z,87.90
2018-05-21T00:23:55.022Z,87.70
2018-05-21T00:26:23.409Z,87.10
2018-05-21T00:28:51.090Z,87.10
2018-05-21T00:31:18.728Z,87.20
2018-05-21T00:33:46.354Z,88.00
2018-05-21T00:36:13.981Z,88.40
2018-05-21T00:38:41.637Z,87.70
2018-05-21T00:41:09.254Z,87.90
2018-05-21T00:43:37.634Z,87.80
2018-05-21T00:46:06.047Z,88.60
2018-05-21T00:48:33.670Z,88.60
2018-05-21T00:51:02.077Z,88.40
2018-05-21T00:53:29.706Z,88.30
2018-05-21T00:55:58.116Z,87.80
2018-05-21T00:58:25.972Z,87.60
2018-05-21T01:00:53.665Z,87.60
2018-05-21T01:03:21.401Z,87.60
2018-05-21T01:05:49.021Z,87.00
2018-05-21T01:08:17.313Z,87.50
2018-05-21T01:10:45.854Z,88.30
2018-05-21T01:13:13.492Z,88.30
2018-05-21T01:15:41.282Z,87.90
2018-05-21T01:18:13.313Z,87.90
2018-05-21T01:20:42.211Z,87.90
2018-05-21T01:23:09.855Z,88.20
2018-05-21T01:25:37.489Z,88.40
2018-05-21T01:28:05.880Z,88.10
2018-05-21T01:30:34.257Z,88.50
2018-05-21T01:33:02.650Z,88.80
2018-05-21T01:35:30.276Z,88.80
2018-05-21T01:37:58.670Z,88.70
2018-05-21T01:40:27.096Z,88.70
2018-05-21T01:42:54.720Z,88.70
2018-05-21T01:45:22.354Z,88.90
2018-05-21T01:47:49.973Z,88.70
2018-05-21T01:50:17.617Z,88.50
2018-05-21T01:52:45.249Z,88.40
2018-05-21T01:55:13.662Z,88.60
2018-05-21T01:57:41.282Z,88.50
2018-05-21T02:00:09.685Z,88.50
2018-05-21T02:02:37.310Z,88.60
2018-05-21T02:05:04.950Z,88.50
2018-05-21T02:07:32.561Z,88.50
2018-05-21T02:10:00.190Z,88.40
2018-05-21T02:12:27.823Z,88.40
2018-05-21T02:14:55.458Z,88.30
2018-05-21T02:17:23.078Z,89.30
2018-05-21T02:19:51.468Z,90.00
2018-05-21T02:22:19.906Z,89.80
2018-05-21T02:24:47.591Z,89.80
2018-05-21T02:27:15.220Z,89.40
2018-05-21T02:29:42.850Z,89.40
2018-05-21T02:32:10.504Z,89.50
2018-05-21T02:34:38.133Z,89.50
2018-05-21T02:37:05.761Z,89.30
2018-05-21T02:39:33.446Z,89.10
2018-05-21T02:42:01.078Z,88.90
2018-05-21T02:44:28.692Z,88.90
2018-05-21T02:46:57.130Z,89.60
2018-05-21T02:49:24.730Z,89.50
2018-05-21T02:51:53.090Z,89.50
2018-05-21T02:54:20.705Z,89.40
2018-05-21T02:56:48.332Z,89.40
2018-05-21T02:59:15.940Z,89.70
2018-05-21T03:01:43.522Z,89.50
2018-05-21T03:04:11.140Z,89.60
2018-05-21T03:06:38.761Z,89.90
2018-05-21T03:09:07.193Z,90.10
2018-05-21T03:11:34.836Z,90.10
2018-05-21T03:14:02.451Z,90.10
2018-05-21T03:16:30.062Z,90.10
2018-05-21T03:18:57.696Z,90.30
2018-05-21T03:21:25.316Z,90.40
2018-05-21T03:23:52.959Z,90.20
2018-05-21T03:26:20.594Z,90.20
2018-05-21T03:28:48.252Z,90.20
2018-05-21T03:31:15.872Z,89.90
2018-05-21T03:33:43.530Z,90.00
2018-05-21T03:36:11.169Z,90.00
2018-05-21T03:38:38.776Z,90.10
2018-05-21T03:41:07.150Z,90.20
2018-05-21T03:43:35.541Z,90.00
2018-05-21T03:46:03.149Z,90.00
2018-05-21T03:48:30.804Z,89.90
2018-05-21T03:50:58.430Z,90.00
2018-05-21T03:53:26.039Z,90.00
2018-05-21T03:55:53.633Z,90.00
2018-05-21T03:58:33.830Z,90.10
2018-05-21T04:01:13.290Z,90.10
2018-05-21T04:03:56.160Z,90.00
2018-05-21T04:06:23.770Z,90.00
2018-05-21T04:08:51.431Z,90.10
2018-05-21T04:11:19.096Z,90.20
2018-05-21T04:13:46.700Z,90.10
2018-05-21T04:16:14.341Z,90.00
2018-05-21T04:18:42.709Z,89.80
2018-05-21T04:21:11.135Z,89.50
2018-05-21T04:23:38.810Z,89.50
2018-05-21T04:26:06.409Z,89.90
2018-05-21T04:28:34.848Z,90.00
2018-05-21T04:31:02.490Z,90.00
2018-05-21T04:33:30.090Z,90.10
2018-05-21T04:35:57.730Z,90.10
2018-05-21T04:38:25.346Z,90.10
2018-05-21T04:40:53.731Z,90.10
2018-05-21T04:43:21.368Z,90.00
2018-05-21T04:45:49.749Z,89.70
2018-05-21T04:48:18.141Z,90.00
2018-05-21T04:50:45.776Z,90.00
2018-05-21T04:53:13.387Z,89.50
2018-05-21T04:55:41.003Z,89.80
2018-05-21T04:58:09.411Z,90.00
2018-05-21T05:00:37.110Z,90.00
2018-05-21T05:03:04.741Z,90.30
2018-05-21T05:05:32.365Z,90.50
2018-05-21T05:08:00.765Z,90.30
2018-05-21T05:10:28.405Z,90.30
2018-05-21T05:12:56.117Z,90.30
2018-05-21T05:15:23.770Z,90.40
2018-05-21T05:17:51.377Z,90.40
2018-05-21T05:20:19.000Z,90.40
2018-05-21T05:22:46.591Z,90.40
2018-05-21T05:25:14.264Z,90.60
2018-05-21T05:27:42.677Z,90.30
2018-05-21T05:30:10.315Z,90.30
2018-05-21T05:32:37.932Z,90.20
2018-05-21T05:35:05.580Z,90.20
2018-05-21T05:37:33.278Z,89.60
2018-05-21T05:40:00.919Z,89.40
2018-05-21T05:42:28.537Z,89.50
2018-05-21T05:44:56.152Z,90.00
2018-05-21T05:47:23.769Z,90.20
2018-05-21T05:49:51.444Z,90.40
2018-05-21T05:52:19.060Z,90.60
2018-05-21T05:54:47.449Z,89.60
2018-05-21T05:57:15.059Z,89.60
2018-05-21T05:59:42.709Z,89.10
2018-05-21T06:02:10.349Z,89.40
2018-05-21T06:04:38.009Z,89.70
2018-05-21T06:07:05.622Z,90.00
2018-05-21T06:09:33.231Z,89.40
2018-05-21T06:12:00.850Z,88.20
2018-05-21T06:14:29.270Z,88.70
2018-05-21T06:16:56.920Z,89.20
2018-05-21T06:19:24.574Z,88.80
2018-05-21T06:21:53.095Z,88.40
2018-05-21T06:24:20.743Z,87.40
2018-05-21T06:26:48.400Z,87.80
2018-05-21T06:29:16.058Z,86.90
2018-05-21T06:31:43.724Z,86.40
2018-05-21T06:34:11.407Z,86.60
2018-05-21T06:36:39.000Z,86.70
2018-05-21T06:39:07.432Z,86.40
2018-05-21T06:41:35.035Z,86.30
2018-05-21T06:44:03.433Z,86.50
2018-05-21T06:46:31.057Z,86.50
2018-05-21T06:48:58.700Z,86.70
2018-05-21T06:51:26.351Z,87.40
2018-05-21T06:53:53.990Z,86.30
2018-05-21T06:56:21.622Z,85.80
2018-05-21T06:58:50.073Z,84.90
2018-05-21T07:01:17.659Z,84.80
2018-05-21T07:03:46.087Z,83.20
2018-05-21T07:06:13.697Z,83.20
2018-05-21T07:08:42.065Z,82.70
2018-05-21T07:11:09.677Z,82.70
2018-05-21T07:13:37.305Z,82.80
2018-05-21T07:16:05.722Z,81.50
2018-05-21T07:18:33.331Z,81.50
2018-05-21T07:21:01.721Z,82.50
2018-05-21T07:23:30.104Z,81.60
2018-05-21T07:25:57.762Z,81.60
2018-05-21T07:28:26.180Z,81.40
2018-05-21T07:30:53.789Z,81.40
2018-05-21T07:33:22.185Z,82.10
2018-05-21T07:35:49.781Z,82.10
2018-05-21T07:38:17.405Z,82.80
2018-05-21T07:40:45.062Z,81.00
2018-05-21T07:43:12.705Z,80.40
2018-05-21T07:45:41.089Z,80.70
2018-05-21T07:48:09.486Z,80.60
2018-05-21T07:50:37.147Z,80.50
2018-05-21T07:53:04.800Z,79.90
2018-05-21T07:55:32.425Z,78.90
2018-05-21T07:58:00.115Z,78.90
2018-05-21T08:00:27.753Z,79.30
2018-05-21T08:02:56.189Z,80.30
2018-05-21T08:05:24.734Z,80.60
2018-05-21T08:07:52.280Z,80.50
2018-05-21T08:10:19.903Z,76.00
2018-05-21T08:12:47.516Z,76.00
2018-05-21T08:15:15.963Z,75.50
2018-05-21T08:17:43.620Z,75.40
2018-05-21T08:20:11.247Z,75.80
2018-05-21T08:22:38.880Z,77.50
2018-05-21T08:25:07.305Z,75.80
2018-05-21T08:27:34.899Z,75.80
2018-05-21T08:30:02.558Z,75.40
2018-05-21T08:32:30.160Z,73.00
2018-05-21T08:34:57.773Z,73.00
2018-05-21T08:37:25.388Z,74.40
2018-05-21T08:39:52.996Z,73.70
2018-05-21T08:42:20.647Z,73.60
2018-05-21T08:44:48.270Z,73.00
2018-05-21T08:47:15.903Z,72.30
2018-05-21T08:49:44.309Z,73.80
2018-05-21T08:52:11.935Z,73.80
2018-05-21T08:54:40.328Z,73.90
2018-05-21T08:57:07.950Z,73.80
2018-05-21T08:59:35.580Z,74.10
2018-05-21T09:02:03.230Z,72.40
2018-05-21T09:04:30.856Z,71.50
2018-05-21T09:06:59.254Z,69.90
2018-05-21T09:09:26.901Z,69.80
2018-05-21T09:11:54.519Z,71.00
2018-05-21T09:14:22.140Z,71.20
2018-05-21T09:16:49.760Z,69.20
2018-05-21T09:19:18.167Z,70.60
2018-05-21T09:21:45.799Z,70.60
2018-05-21T09:24:13.390Z,67.10
2018-05-21T09:26:41.006Z,69.60
2018-05-21T09:29:08.630Z,69.00
2018-05-21T09:31:36.310Z,68.50
2018-05-21T09:34:03.917Z,68.30
2018-05-21T09:36:32.310Z,67.50
2018-05-21T09:38:59.930Z,67.40
2018-05-21T09:41:27.561Z,67.80
2018-05-21T09:43:55.218Z,66.80
2018-05-21T09:46:22.858Z,67.40
2018-05-21T09:48:50.460Z,67.00
2018-05-21T09:51:18.159Z,66.20
2018-05-21T09:53:46.537Z,64.20
2018-05-21T09:56:14.180Z,64.20
2018-05-21T09:58:41.799Z,64.40
2018-05-21T10:01:09.414Z,64.80
2018-05-21T10:03:37.811Z,64.80
2018-05-21T10:06:05.451Z,64.70
2018-05-21T10:08:33.907Z,66.40
2018-05-21T10:11:01.494Z,66.30
2018-05-21T10:13:29.889Z,63.20
2018-05-21T10:15:57.520Z,63.20
2018-05-21T10:18:25.945Z,61.80
2018-05-21T10:20:53.557Z,61.70
2018-05-21T10:23:22.048Z,61.90
2018-05-21T10:25:50.453Z,61.40
2018-05-21T10:28:18.082Z,61.30
2018-05-21T10:30:46.480Z,62.60
2018-05-21T10:33:14.115Z,62.60
2018-05-21T10:35:42.485Z,61.80
2018-05-21T10:38:10.113Z,61.70
2018-05-21T10:40:37.770Z,62.40
2018-05-21T10:43:05.372Z,60.20
2018-05-21T10:45:33.826Z,61.90
2018-05-21T10:48:02.222Z,63.50
2018-05-21T10:50:30.997Z,59.30
2018-05-21T10:52:58.629Z,59.80
2018-05-21T10:55:26.287Z,58.70
2018-05-21T10:57:53.998Z,60.20
2018-05-21T11:00:21.645Z,60.90
2018-05-21T11:02:49.270Z,58.50
2018-05-21T11:05:16.891Z,58.00
2018-05-21T11:07:45.241Z,57.50
2018-05-21T11:10:12.934Z,57.40
2018-05-21T11:12:41.306Z,55.30
2018-05-21T11:15:09.687Z,56.70
2018-05-21T11:17:38.085Z,57.30
2018-05-21T11:20:05.706Z,57.20
2018-05-21T11:22:33.350Z,55.40
2018-05-21T11:25:00.981Z,56.80
2018-05-21T11:27:28.661Z,57.30
2018-05-21T11:29:56.330Z,55.50
2018-05-21T11:32:23.979Z,56.10
2018-05-21T11:34:51.627Z,56.00
2018-05-21T11:37:19.248Z,55.60
2018-05-21T11:39:47.604Z,56.10
2018-05-21T11:42:15.239Z,56.10
2018-05-21T11:44:42.870Z,55.30
2018-05-21T11:47:10.500Z,56.00
2018-05-21T11:49:38.894Z,54.00
2018-05-21T11:52:07.280Z,54.80
2018-05-21T11:54:34.990Z,54.70
2018-05-21T11:57:02.624Z,55.60
2018-05-21T11:59:30.276Z,53.60
2018-05-21T12:01:57.938Z,54.00
2018-05-21T12:04:25.573Z,53.80
2018-05-21T12:06:53.989Z,52.70
2018-05-21T12:09:21.606Z,52.70
2018-05-21T12:11:50.033Z,55.40
2018-05-21T12:14:17.687Z,55.40
2018-05-21T12:16:45.319Z,53.00
2018-05-21T12:19:12.922Z,52.00
2018-05-21T12:21:40.554Z,53.70
2018-05-21T12:24:08.194Z,54.40
2018-05-21T12:26:36.580Z,48.00
2018-05-21T12:29:04.217Z,48.00
2018-05-21T12:31:32.631Z,47.00
2018-05-21T12:34:00.251Z,47.50
2018-05-21T12:36:27.977Z,47.20
2018-05-21T12:38:55.582Z,47.00
2018-05-21T12:41:23.990Z,46.20
2018-05-21T12:43:51.601Z,46.20
2018-05-21T12:46:19.251Z,47.40
2018-05-21T12:48:46.915Z,48.60
2018-05-21T12:51:14.541Z,49.20
2018-05-21T12:53:43.293Z,46.90
2018-05-21T12:56:11.720Z,47.80
2018-05-21T12:58:39.357Z,47.80
2018-05-21T13:01:07.006Z,47.30
2018-05-21T13:03:35.440Z,49.50
2018-05-21T13:06:03.040Z,49.50
2018-05-21T13:08:31.436Z,47.90
2018-05-21T13:10:59.051Z,47.90
2018-05-21T13:13:26.687Z,47.80
2018-05-21T13:15:55.480Z,47.30
2018-05-21T13:18:23.103Z,47.70
2018-05-21T13:20:50.717Z,48.30
2018-05-21T13:23:18.339Z,50.00
2018-05-21T13:25:46.017Z,50.30
2018-05-21T13:28:13.638Z,47.70
2018-05-21T13:30:41.300Z,48.70
2018-05-21T13:33:08.949Z,45.50
2018-05-21T13:35:37.354Z,47.70
2018-05-21T13:38:04.994Z,47.70
2018-05-21T13:40:32.637Z,47.10
2018-05-21T13:43:01.020Z,45.50
2018-05-21T13:45:29.370Z,44.00
2018-05-21T13:47:56.977Z,44.00
2018-05-21T13:57:52.462Z,44.70
2018-05-21T14:00:20.128Z,44.90
2018-05-21T14:02:47.786Z,44.80
2018-05-21T14:05:15.423Z,45.70
2018-05-21T14:07:43.041Z,47.20
2018-05-21T14:10:10.681Z,46.80
2018-05-21T14:12:38.383Z,46.30
2018-05-21T14:15:05.994Z,47.90
2018-05-21T14:17:33.720Z,46.90
2018-05-21T14:20:01.330Z,47.20
2018-05-21T14:22:28.948Z,47.40
2018-05-21T14:24:56.604Z,49.10
2018-05-21T14:27:24.265Z,50.20
2018-05-21T14:29:51.941Z,50.70
2018-05-21T14:32:19.581Z,49.20
2018-05-21T14:34:47.197Z,47.60
2018-05-21T14:37:14.825Z,48.80
2018-05-21T14:39:42.468Z,51.30
2018-05-21T14:42:10.064Z,54.00
2018-05-21T14:44:37.706Z,53.50
2018-05-21T14:47:05.296Z,53.90
2018-05-21T14:49:32.924Z,54.10
2018-05-21T14:52:00.600Z,55.80
2018-05-21T14:54:28.242Z,55.90
2018-05-21T14:56:55.922Z,57.00
2018-05-21T14:59:23.540Z,58.00
2018-05-21T15:01:51.913Z,58.70
2018-05-21T15:04:20.350Z,58.50
2018-05-21T15:06:47.991Z,58.40
2018-05-21T15:09:15.617Z,58.60
2018-05-21T15:11:43.231Z,57.50
2018-05-21T15:14:10.860Z,53.60
2018-05-21T15:16:38.520Z,50.00
2018-05-21T15:19:06.106Z,50.20
2018-05-21T15:21:33.720Z,50.20
2018-05-21T15:24:02.105Z,48.40
2018-05-21T15:26:29.751Z,49.00
2018-05-21T15:28:58.156Z,49.70
2018-05-21T15:31:25.780Z,49.70
2018-05-21T15:33:54.175Z,48.30
2018-05-21T15:36:22.549Z,47.20
2018-05-21T15:38:50.943Z,46.10
2018-05-21T15:41:18.680Z,46.00
2018-05-21T15:43:47.039Z,45.50
2018-05-21T15:46:14.654Z,45.40
2018-05-21T15:48:42.341Z,45.50
2018-05-21T15:51:10.680Z,45.10
2018-05-21T15:53:38.297Z,45.10
2018-05-21T15:56:05.901Z,45.70
2018-05-21T15:58:33.528Z,46.80
2018-05-21T16:01:01.124Z,45.80
2018-05-21T16:03:28.756Z,46.60
2018-05-21T16:05:57.171Z,47.00
2018-05-21T16:08:24.822Z,47.00
2018-05-21T16:10:52.450Z,46.50
2018-05-21T16:13:20.090Z,47.80
2018-05-21T16:15:47.739Z,48.30
2018-05-21T16:18:32.120Z,46.80
2018-05-21T16:21:15.042Z,47.00
2018-05-21T16:23:44.819Z,47.30
2018-05-21T16:26:12.438Z,47.20
2018-05-21T16:28:40.283Z,47.80
2018-05-21T16:31:08.664Z,47.70
2018-05-21T16:33:37.033Z,48.00
2018-05-21T16:36:04.680Z,48.00
2018-05-21T16:38:32.305Z,49.10
2018-05-21T16:40:59.907Z,49.20
2018-05-21T16:43:27.532Z,49.90
2018-05-21T16:45:55.225Z,49.90
2018-05-21T16:48:23.616Z,50.20
2018-05-21T16:50:51.284Z,50.20
2018-05-21T16:53:19.689Z,50.80
2018-05-21T16:55:48.204Z,50.80
2018-05-21T16:58:15.851Z,50.90
2018-05-21T17:00:43.545Z,51.30
2018-05-21T17:03:11.191Z,51.20
2018-05-21T17:05:38.825Z,51.80
2018-05-21T17:08:06.437Z,52.40
2018-05-21T17:10:34.070Z,52.60
2018-05-21T17:13:02.493Z,53.10
2018-05-21T17:15:30.882Z,53.40
2018-05-21T17:17:58.505Z,53.30
2018-05-21T17:20:27.042Z,53.10
2018-05-21T17:22:54.719Z,53.50
2018-05-21T17:25:22.501Z,54.00
2018-05-21T17:27:50.779Z,54.10
2018-05-21T17:30:18.450Z,53.30
2018-05-21T17:32:46.489Z,52.20
2018-05-21T17:35:15.173Z,52.20
2018-05-21T17:37:43.082Z,52.20
2018-05-21T17:40:11.781Z,52.60
2018-05-21T17:42:39.738Z,52.60
2018-05-21T17:45:07.742Z,53.00
2018-05-21T17:47:35.895Z,53.20
2018-05-21T17:50:04.605Z,54.10
2018-05-21T17:52:32.784Z,55.20
2018-05-21T17:55:09.809Z,55.10
2018-05-21T17:57:46.884Z,55.60
2018-05-21T18:00:25.072Z,55.60
2018-05-21T18:02:54.929Z,55.50
2018-05-21T18:05:22.777Z,55.70
2018-05-21T18:07:56.878Z,56.10
2018-05-21T18:10:28.151Z,56.00
2018-05-21T18:12:59.000Z,56.30
2018-05-21T18:15:29.737Z,56.70
2018-05-21T18:18:00.648Z,57.00
2018-05-21T18:20:28.544Z,56.90
2018-05-21T18:22:56.164Z,56.80
2018-05-21T18:25:24.705Z,57.10
2018-05-21T18:27:52.350Z,57.00
2018-05-21T18:30:19.966Z,57.50
2018-05-21T18:32:48.475Z,58.10
2018-05-21T18:35:16.853Z,58.30
2018-05-21T18:37:45.260Z,58.80
2018-05-21T18:40:12.958Z,58.80
2018-05-21T18:42:40.620Z,59.10
2018-05-21T18:45:08.214Z,59.20
2018-05-21T18:47:35.857Z,59.50
2018-05-21T18:50:03.504Z,59.20
2018-05-21T18:52:31.146Z,59.20
2018-05-21T18:54:58.771Z,58.60
2018-05-21T18:57:26.380Z,58.70
2018-05-21T18:59:54.020Z,59.10
2018-05-21T19:02:21.630Z,59.20
2018-05-21T19:04:50.060Z,59.60
2018-05-21T19:07:17.686Z,59.40
2018-05-21T19:09:45.280Z,60.40
2018-05-21T19:12:12.890Z,59.80
2018-05-21T19:14:41.288Z,59.90
2018-05-21T19:17:08.936Z,59.90
2018-05-21T19:19:36.565Z,60.00
2018-05-21T19:22:04.242Z,60.30
2018-05-21T19:27:23.186Z,61.50
2018-05-21T19:29:53.940Z,61.40
2018-05-21T19:32:24.075Z,61.40
2018-05-21T19:34:52.428Z,61.40
2018-05-21T19:37:20.119Z,62.20
2018-05-21T19:39:48.503Z,63.80
2018-05-21T19:42:16.930Z,63.80
2018-05-21T19:44:44.561Z,63.80
2018-05-21T19:47:12.178Z,63.50
2018-05-21T19:49:39.763Z,63.80
2018-05-21T19:52:08.139Z,65.30
2018-05-21T19:54:35.781Z,65.30
2018-05-21T19:57:03.387Z,66.70
2018-05-21T19:59:31.039Z,67.60
2018-05-21T20:01:58.676Z,69.30
2018-05-21T20:04:27.036Z,69.90
2018-05-21T20:06:54.715Z,69.90
2018-05-21T20:09:23.097Z,69.40
2018-05-21T20:11:51.507Z,69.60
2018-05-21T20:14:20.452Z,69.50
2018-05-21T20:16:48.108Z,69.40
2018-05-21T20:19:15.773Z,69.80
2018-05-21T20:21:43.396Z,69.10
2018-05-21T20:24:11.044Z,69.10
2018-05-21T20:26:38.659Z,69.40
2018-05-21T20:29:07.020Z,68.40
2018-05-21T20:31:34.694Z,68.30
2018-05-21T20:34:02.313Z,67.90
2018-05-21T20:36:30.015Z,68.50
2018-05-21T20:38:57.630Z,69.40
2018-05-21T20:41:25.280Z,69.50
2018-05-21T20:43:52.912Z,69.80
2018-05-21T20:46:21.322Z,71.20
2018-05-21T20:48:48.990Z,71.20
2018-05-21T20:51:16.611Z,71.70
2018-05-21T20:53:45.000Z,72.30
2018-05-21T20:56:12.625Z,72.30
2018-05-21T20:58:40.231Z,72.40
2018-05-21T21:01:07.883Z,72.40
2018-05-21T21:03:35.529Z,72.70
2018-05-21T21:06:03.950Z,73.10
2018-05-21T21:08:31.560Z,73.00
2018-05-21T21:10:59.936Z,74.50
2018-05-21T21:13:28.407Z,74.90
2018-05-21T21:15:56.039Z,74.90
2018-05-21T21:18:23.657Z,75.60
2018-05-21T21:20:51.258Z,75.40
2018-05-21T21:23:18.956Z,75.40
2018-05-21T21:25:46.550Z,76.00
2018-05-21T21:28:14.178Z,76.00
2018-05-21T21:30:42.573Z,76.80
2018-05-21T21:33:10.188Z,76.80
2018-05-21T21:35:37.823Z,76.90
2018-05-21T21:38:05.454Z,76.80
2018-05-21T21:40:33.121Z,76.70
2018-05-21T21:43:00.769Z,76.70
2018-05-21T21:45:29.189Z,76.20
2018-05-21T21:47:56.790Z,76.20
2018-05-21T21:50:24.432Z,75.90
2018-05-21T21:52:52.039Z,75.30
2018-05-21T21:55:19.680Z,75.10
2018-05-21T21:57:48.032Z,75.80
2018-05-21T22:00:15.735Z,75.80
2018-05-21T22:02:43.392Z,75.90
2018-05-21T22:05:11.795Z,75.80
2018-05-21T22:07:39.442Z,75.70
2018-05-21T22:10:07.091Z,74.60
2018-05-21T22:12:35.461Z,75.50
2018-05-21T22:15:03.913Z,74.60
2018-05-21T22:17:31.541Z,74.60
2018-05-21T22:19:59.169Z,74.90
2018-05-21T22:22:27.541Z,75.60
2018-05-21T22:24:55.903Z,75.80
2018-05-21T22:27:24.308Z,75.80
2018-05-21T22:29:51.983Z,76.00
2018-05-21T22:32:19.637Z,76.10
2018-05-21T22:34:47.295Z,76.20
2018-05-21T22:37:14.933Z,75.80
2018-05-21T22:39:43.380Z,74.70
2018-05-21T22:42:10.981Z,74.70
2018-05-21T22:44:42.190Z,76.40
2018-05-21T22:47:09.819Z,76.40
2018-05-21T22:49:37.446Z,77.20
2018-05-21T22:52:05.860Z,78.20
2018-05-21T22:54:35.258Z,78.10
2018-05-21T22:57:02.901Z,78.10
2018-05-21T22:59:30.516Z,78.60
2018-05-21T23:01:58.130Z,78.00
2018-05-21T23:04:25.758Z,78.10
2018-05-21T23:06:53.391Z,78.50
2018-05-21T23:09:21.020Z,78.90
2018-05-21T23:11:48.640Z,79.50
2018-05-21T23:14:16.324Z,79.10
2018-05-21T23:16:43.946Z,78.90
2018-05-21T23:19:11.679Z,78.80
2018-05-21T23:21:39.296Z,78.30
2018-05-21T23:24:07.716Z,78.80
2018-05-21T23:26:35.345Z,78.70
2018-05-21T23:29:03.050Z,78.70
2018-05-21T23:31:30.678Z,78.80
2018-05-21T23:33:58.308Z,79.20
2018-05-21T23:36:26.680Z,80.00
2018-05-21T23:38:54.277Z,80.00
2018-05-21T23:41:21.899Z,80.10
2018-05-21T23:43:49.499Z,80.00
2018-05-21T23:46:17.109Z,80.20
2018-05-21T23:48:44.757Z,80.40
2018-05-21T23:51:12.356Z,80.70
2018-05-21T23:53:40.029Z,80.60
2018-05-21T23:56:07.660Z,80.40
2018-05-21T23:58:36.059Z,79.20
